createdAt,value
2023-05-25T00:01:27.778Z,101701.77
2023-05-25T00:03:56.744Z,101700.95
2023-05-25T00:06:27.362Z,101700.07
2023-05-25T00:08:56.866Z,101701.28
2023-05-25T00:11:28.000Z,101694.35
2023-05-25T00:13:56.146Z,101689.94
2023-05-25T00:16:24.320Z,101689.48
2023-05-25T00:18:54.482Z,101686.93
2023-05-25T00:21:22.570Z,101688.59
2023-05-25T00:23:50.696Z,101675.45
2023-05-25T00:26:18.758Z,101686.11
2023-05-25T00:28:46.874Z,101674.96
2023-05-25T00:31:15.012Z,101681.56
2023-05-25T00:33:43.049Z,101676.66
2023-05-25T00:36:11.128Z,101674.11
2023-05-25T00:38:39.116Z,101670.41
2023-05-25T00:41:07.521Z,101670.77
2023-05-25T00:43:36.331Z,101671.63
2023-05-25T00:46:04.689Z,101672.45
2023-05-25T00:48:35.950Z,101672.45
2023-05-25T00:51:04.082Z,101668.75
2023-05-25T00:53:35.071Z,101673.66
2023-05-25T00:56:24.674Z,101664.04
2023-05-25T00:58:54.473Z,101679.21
2023-05-25T01:01:25.652Z,101678.36
2023-05-25T01:03:55.127Z,101672.87
2023-05-25T01:06:24.455Z,101674.02
2023-05-25T01:08:55.344Z,101672.34
2023-05-25T01:11:33.821Z,101678.79
2023-05-25T01:14:02.076Z,101672.67
2023-05-25T01:16:30.553Z,101672.21
2023-05-25T01:18:59.124Z,101670.19
2023-05-25T01:21:31.354Z,101667.18
2023-05-25T01:24:43.100Z,101667.51
2023-05-25T01:27:14.374Z,101668.20
2023-05-25T01:29:44.466Z,101662.80
2023-05-25T01:32:12.990Z,101672.57
2023-05-25T01:34:41.798Z,101671.59
2023-05-25T01:37:10.051Z,101670.94
2023-05-25T01:39:38.755Z,101679.05
2023-05-25T01:42:07.840Z,101666.27
2023-05-25T01:44:38.413Z,101675.55
2023-05-25T01:47:11.797Z,101665.09
2023-05-25T01:50:07.939Z,101662.08
2023-05-25T01:52:45.712Z,101674.21
2023-05-25T01:55:14.689Z,101665.12
2023-05-25T01:57:44.369Z,101672.21
2023-05-25T02:00:13.726Z,101672.90
2023-05-25T02:02:45.653Z,101674.63
2023-05-25T02:05:13.877Z,101673.30
2023-05-25T02:07:42.038Z,101679.54
2023-05-25T02:10:10.482Z,101674.80
2023-05-25T02:12:38.625Z,101672.64
2023-05-25T02:15:07.335Z,101675.68
2023-05-25T02:17:35.383Z,101661.69
2023-05-25T02:20:03.388Z,101655.15
2023-05-25T02:22:31.454Z,101656.32
2023-05-25T02:24:59.546Z,101654.13
2023-05-25T02:27:28.078Z,101651.29
2023-05-25T02:29:56.154Z,101653.31
2023-05-25T02:32:24.370Z,101645.05
2023-05-25T02:34:52.494Z,101650.93
2023-05-25T02:37:20.488Z,101652.27
2023-05-25T02:39:48.484Z,101643.54
2023-05-25T02:42:16.526Z,101644.39
2023-05-25T02:44:49.609Z,101652.63
2023-05-25T02:47:18.128Z,101653.48
2023-05-25T02:49:46.808Z,101653.31
2023-05-25T02:52:14.939Z,101646.41
2023-05-25T02:54:43.319Z,101649.78
2023-05-25T02:57:11.648Z,101647.76
2023-05-25T02:59:40.026Z,101636.80
2023-05-25T03:02:08.201Z,101635.27
2023-05-25T03:04:39.307Z,101623.82
2023-05-25T03:07:07.531Z,101629.91
2023-05-25T03:09:35.537Z,101624.18
2023-05-25T03:12:04.026Z,101626.67
2023-05-25T03:14:32.146Z,101622.16
2023-05-25T03:17:00.254Z,101639.68
2023-05-25T03:19:28.294Z,101641.19
2023-05-25T03:21:56.318Z,101635.98
2023-05-25T03:24:24.284Z,101637.30
2023-05-25T03:26:52.391Z,101636.97
2023-05-25T03:29:20.509Z,101647.04
2023-05-25T03:31:48.593Z,101650.60
2023-05-25T03:34:16.722Z,101648.94
2023-05-25T03:36:47.164Z,101643.70
2023-05-25T03:39:15.163Z,101644.03
2023-05-25T03:41:44.502Z,101649.23
2023-05-25T03:44:12.622Z,101654.13
2023-05-25T03:46:40.921Z,101650.80
2023-05-25T03:49:09.260Z,101652.63
2023-05-25T03:51:38.121Z,101654.66
2023-05-25T03:54:06.158Z,101658.71
2023-05-25T03:56:34.431Z,101653.45
2023-05-25T03:59:02.493Z,101662.24
2023-05-25T04:01:31.577Z,101664.76
2023-05-25T04:04:00.002Z,101665.58
2023-05-25T04:06:28.177Z,101659.85
2023-05-25T04:08:56.718Z,101658.35
2023-05-25T04:11:26.188Z,101657.50
2023-05-25T04:13:54.295Z,101658.71
2023-05-25T04:16:23.128Z,101667.27
2023-05-25T04:18:51.421Z,101666.43
2023-05-25T04:21:19.477Z,101663.55
2023-05-25T04:23:47.550Z,101665.74
2023-05-25T04:26:17.158Z,101670.77
2023-05-25T04:28:45.504Z,101666.76
2023-05-25T04:31:14.847Z,101684.77
2023-05-25T04:33:42.954Z,101674.66
2023-05-25T04:36:12.385Z,101668.45
2023-05-25T04:38:40.446Z,101669.80
2023-05-25T04:41:09.687Z,101672.97
2023-05-25T04:43:39.155Z,101674.05
2023-05-25T04:46:10.120Z,101673.69
2023-05-25T04:48:39.849Z,101676.20
2023-05-25T04:51:09.191Z,101668.45
2023-05-25T04:53:37.575Z,101677.22
2023-05-25T04:56:05.789Z,101672.31
2023-05-25T04:58:35.065Z,101663.87
2023-05-25T05:01:03.177Z,101673.49
2023-05-25T05:03:31.336Z,101668.62
2023-05-25T05:05:59.671Z,101671.98
2023-05-25T05:08:27.658Z,101678.72
2023-05-25T05:10:55.733Z,101682.41
2023-05-25T05:13:24.030Z,101675.48
2023-05-25T05:15:52.092Z,101683.07
2023-05-25T05:18:20.222Z,101681.56
2023-05-25T05:20:48.274Z,101678.00
2023-05-25T05:23:16.488Z,101683.89
2023-05-25T05:25:44.887Z,101676.30
2023-05-25T05:28:13.163Z,101687.74
2023-05-25T05:30:41.249Z,101685.55
2023-05-25T05:33:09.564Z,101693.99
2023-05-25T05:35:37.688Z,101688.04
2023-05-25T05:38:07.177Z,101691.93
2023-05-25T05:40:35.353Z,101691.37
2023-05-25T05:43:03.419Z,101690.36
2023-05-25T05:45:31.425Z,101688.50
2023-05-25T05:47:59.468Z,101682.55
2023-05-25T05:50:27.747Z,101685.91
2023-05-25T05:52:56.052Z,101698.21
2023-05-25T05:55:24.153Z,101693.96
2023-05-25T05:57:52.508Z,101692.42
2023-05-25T06:00:21.005Z,101689.70
2023-05-25T06:02:49.372Z,101693.56
2023-05-25T06:05:17.964Z,101695.92
2023-05-25T06:07:46.069Z,101697.85
2023-05-25T06:10:14.505Z,101694.74
2023-05-25T06:12:42.757Z,101689.84
2023-05-25T06:15:11.224Z,101686.47
2023-05-25T06:17:39.364Z,101685.72
2023-05-25T06:20:08.040Z,101680.59
2023-05-25T06:22:36.188Z,101684.05
2023-05-25T06:25:04.264Z,101685.20
2023-05-25T06:27:32.370Z,101692.26
2023-05-25T06:30:00.529Z,101693.59
2023-05-25T06:32:28.749Z,101693.59
2023-05-25T06:34:57.257Z,101699.09
2023-05-25T06:37:25.378Z,101691.31
2023-05-25T06:39:54.876Z,101689.05
2023-05-25T06:42:24.529Z,101702.00
2023-05-25T06:44:52.858Z,101718.55
2023-05-25T06:47:20.904Z,101724.30
2023-05-25T06:49:49.248Z,101716.29
2023-05-25T06:52:17.566Z,101724.70
2023-05-25T06:54:45.637Z,101732.38
2023-05-25T06:57:13.951Z,101741.23
2023-05-25T06:59:42.109Z,101735.61
2023-05-25T07:02:10.162Z,101732.31
2023-05-25T07:04:38.692Z,101733.42
2023-05-25T07:07:07.699Z,101738.36
2023-05-25T07:09:35.722Z,101736.69
2023-05-25T07:12:04.138Z,101735.52
2023-05-25T07:14:32.284Z,101727.47
2023-05-25T07:17:00.380Z,101737.90
2023-05-25T07:19:28.402Z,101726.52
2023-05-25T07:21:56.387Z,101725.09
2023-05-25T07:24:24.472Z,101722.08
2023-05-25T07:26:52.548Z,101704.71
2023-05-25T07:29:20.657Z,101716.91
2023-05-25T07:31:48.826Z,101717.23
2023-05-25T07:34:17.000Z,101727.60
2023-05-25T07:36:45.223Z,101732.96
2023-05-25T07:39:13.569Z,101739.34
2023-05-25T07:41:41.527Z,101738.59
2023-05-25T07:44:09.538Z,101743.62
2023-05-25T07:46:37.717Z,101743.43
2023-05-25T07:49:06.365Z,101747.74
2023-05-25T07:51:34.464Z,101750.72
2023-05-25T07:54:03.166Z,101764.02
2023-05-25T07:56:31.220Z,101747.25
2023-05-25T07:59:01.445Z,101762.00
2023-05-25T08:01:30.171Z,101751.63
2023-05-25T08:03:58.661Z,101758.89
2023-05-25T08:06:27.266Z,101753.46
2023-05-25T08:08:55.515Z,101755.16
2023-05-25T08:11:25.612Z,101745.16
2023-05-25T08:13:53.883Z,101752.19
2023-05-25T08:16:22.062Z,101755.43
2023-05-25T08:18:50.225Z,101762.65
2023-05-25T08:21:18.375Z,101758.01
2023-05-25T08:23:46.420Z,101766.58
2023-05-25T08:26:34.303Z,101759.94
2023-05-25T08:29:03.713Z,101771.74
2023-05-25T08:31:33.882Z,101769.32
2023-05-25T08:34:02.678Z,101766.51
2023-05-25T08:36:30.978Z,101767.62
2023-05-25T08:38:59.094Z,101775.53
2023-05-25T08:41:27.428Z,101790.28
2023-05-25T08:43:55.446Z,101785.15
2023-05-25T08:46:32.780Z,101786.20
2023-05-25T08:49:08.143Z,101785.96
2023-05-25T08:51:43.843Z,101795.22
2023-05-25T08:54:13.885Z,101790.18
2023-05-25T08:56:52.779Z,101791.59
2023-05-25T08:59:24.019Z,101787.17
2023-05-25T09:01:54.658Z,101787.47
2023-05-25T09:04:22.884Z,101799.14
2023-05-25T09:07:05.769Z,101809.02
2023-05-25T09:09:38.551Z,101803.33
2023-05-25T09:12:07.611Z,101805.12
2023-05-25T09:14:35.951Z,101813.46
2023-05-25T09:17:04.092Z,101815.72
2023-05-25T09:19:32.187Z,101827.09
2023-05-25T09:22:14.771Z,101827.45
2023-05-25T09:24:45.696Z,101821.21
2023-05-25T09:27:14.671Z,101823.76
2023-05-25T09:29:42.788Z,101829.29
2023-05-25T09:32:10.982Z,101832.63
2023-05-25T09:34:39.240Z,101837.23
2023-05-25T09:37:15.263Z,101833.21
2023-05-25T09:39:44.203Z,101837.13
2023-05-25T09:42:13.220Z,101842.07
2023-05-25T09:44:41.834Z,101849.79
2023-05-25T09:47:09.906Z,101844.10
2023-05-25T09:49:38.139Z,101857.14
2023-05-25T09:52:06.527Z,101850.08
2023-05-25T09:54:34.584Z,101843.67
2023-05-25T09:57:05.073Z,101851.84
2023-05-25T09:59:33.734Z,101847.66
2023-05-25T10:02:02.195Z,101856.66
2023-05-25T10:04:30.412Z,101858.38
2023-05-25T10:06:58.503Z,101857.44
2023-05-25T10:09:28.917Z,101862.67
2023-05-25T10:12:00.944Z,101859.76
2023-05-25T10:14:30.288Z,101860.64
2023-05-25T10:17:01.489Z,101861.36
2023-05-25T10:19:44.571Z,101863.03
2023-05-25T10:22:18.394Z,101870.62
2023-05-25T10:24:56.423Z,101870.02
2023-05-25T10:27:27.526Z,101872.64
2023-05-25T10:30:14.337Z,101872.51
2023-05-25T10:32:42.642Z,101870.74
2023-05-25T10:35:11.231Z,101852.41
2023-05-25T10:37:39.278Z,101858.78
2023-05-25T10:40:10.055Z,101866.85
2023-05-25T10:42:39.005Z,101861.10
2023-05-25T10:45:08.741Z,101871.47
2023-05-25T10:47:43.588Z,101873.36
2023-05-25T10:50:28.114Z,101868.85
2023-05-25T10:53:03.856Z,101866.76
2023-05-25T10:55:54.554Z,101863.84
2023-05-25T10:58:23.773Z,101873.30
2023-05-25T11:01:12.094Z,101876.77
2023-05-25T11:03:46.428Z,101872.74
2023-05-25T11:06:19.194Z,101876.99
2023-05-25T11:08:53.325Z,101878.79
2023-05-25T11:11:21.732Z,101877.65
2023-05-25T11:13:50.933Z,101884.02
2023-05-25T11:16:45.768Z,101879.97
2023-05-25T11:19:16.304Z,101881.73
2023-05-25T11:21:45.048Z,101869.73
2023-05-25T11:24:17.732Z,101870.19
2023-05-25T11:27:00.519Z,101868.55
2023-05-25T11:29:32.399Z,101870.55
2023-05-25T11:32:02.014Z,101872.45
2023-05-25T11:34:30.600Z,101874.24
2023-05-25T11:36:59.584Z,101884.70
2023-05-25T11:39:27.964Z,101875.29
2023-05-25T11:41:57.540Z,101881.14
2023-05-25T11:44:30.008Z,101881.24
2023-05-25T11:46:59.026Z,101879.18
2023-05-25T11:49:27.483Z,101881.70
2023-05-25T11:51:56.429Z,101878.79
2023-05-25T11:54:25.560Z,101876.73
2023-05-25T11:56:55.098Z,101878.82
2023-05-25T11:59:24.574Z,101882.13
2023-05-25T12:04:19.674Z,101879.25
2023-05-25T12:06:51.082Z,101872.19
2023-05-25T12:09:25.518Z,101879.21
2023-05-25T12:11:53.658Z,101872.58
2023-05-25T12:14:22.334Z,101875.06
2023-05-25T12:16:50.443Z,101867.61
2023-05-25T12:19:18.587Z,101873.39
2023-05-25T12:21:46.799Z,101873.03
2023-05-25T12:24:14.961Z,101869.73
2023-05-25T12:26:50.375Z,101866.82
2023-05-25T12:29:18.592Z,101865.58
2023-05-25T12:31:46.715Z,101862.24
2023-05-25T12:34:18.416Z,101856.78
2023-05-25T12:36:53.889Z,101859.30
2023-05-25T12:39:30.952Z,101861.00
2023-05-25T12:42:00.601Z,101858.88
2023-05-25T12:44:35.634Z,101863.06
2023-05-25T12:47:24.854Z,101859.30
2023-05-25T12:50:12.514Z,101868.49
2023-05-25T12:52:42.077Z,101872.64
2023-05-25T12:55:28.951Z,101868.52
2023-05-25T12:58:29.316Z,101868.13
2023-05-25T13:00:57.681Z,101878.92
2023-05-25T13:03:25.816Z,101869.73
2023-05-25T13:05:54.206Z,101873.95
2023-05-25T13:08:22.348Z,101878.13
2023-05-25T13:10:52.442Z,101885.59
2023-05-25T13:13:20.565Z,101863.09
2023-05-25T13:15:48.704Z,101870.59
2023-05-25T13:18:16.975Z,101870.22
2023-05-25T13:20:46.566Z,101863.06
2023-05-25T13:23:17.691Z,101867.61
2023-05-25T13:25:46.465Z,101867.97
2023-05-25T13:28:14.630Z,101879.93
2023-05-25T13:30:43.979Z,101868.20
2023-05-25T13:33:12.367Z,101868.09
2023-05-25T13:35:47.420Z,101879.21
2023-05-25T13:38:17.376Z,101872.15
2023-05-25T13:40:46.355Z,101872.25
2023-05-25T13:43:14.474Z,101864.93
2023-05-25T13:45:42.878Z,101862.34
2023-05-25T13:48:11.297Z,101871.89
2023-05-25T13:50:39.349Z,101871.43
2023-05-25T13:53:07.496Z,101879.28
2023-05-25T13:55:37.334Z,101874.80
2023-05-25T13:58:06.731Z,101873.16
2023-05-25T14:00:34.972Z,101873.43
2023-05-25T14:03:03.783Z,101870.06
2023-05-25T14:05:32.771Z,101873.79
2023-05-25T14:08:03.901Z,101876.66
2023-05-25T14:10:35.210Z,101872.80
2023-05-25T14:13:03.263Z,101874.41
2023-05-25T14:15:31.401Z,101873.52
2023-05-25T14:17:59.457Z,101880.09
2023-05-25T14:20:27.948Z,101878.85
2023-05-25T14:22:56.098Z,101876.63
2023-05-25T14:25:24.556Z,101876.56
2023-05-25T14:27:52.721Z,101883.92
2023-05-25T14:30:20.884Z,101882.22
2023-05-25T14:32:49.492Z,101881.02
2023-05-25T14:35:17.656Z,101879.84
2023-05-25T14:37:45.925Z,101879.41
2023-05-25T14:40:14.686Z,101876.50
2023-05-25T14:42:42.950Z,101873.23
2023-05-25T14:45:12.475Z,101873.85
2023-05-25T14:47:42.124Z,101872.58
2023-05-25T14:50:10.362Z,101866.33
2023-05-25T14:52:38.733Z,101861.69
2023-05-25T14:55:07.357Z,101864.60
2023-05-25T14:57:35.416Z,101865.41
2023-05-25T15:00:04.077Z,101862.93
2023-05-25T15:02:32.471Z,101870.81
2023-05-25T15:05:00.902Z,101874.60
2023-05-25T15:07:29.057Z,101872.12
2023-05-25T15:09:57.117Z,101873.75
2023-05-25T15:12:25.245Z,101873.69
2023-05-25T15:14:53.319Z,101879.02
2023-05-25T15:17:21.426Z,101883.59
2023-05-25T15:19:49.494Z,101891.87
2023-05-25T15:22:17.647Z,101888.56
2023-05-25T15:24:45.811Z,101884.84
2023-05-25T15:27:14.427Z,101887.75
2023-05-25T15:29:42.527Z,101881.50
2023-05-25T15:32:14.536Z,101883.20
2023-05-25T15:34:42.733Z,101887.35
2023-05-25T15:37:12.412Z,101883.59
2023-05-25T15:39:41.260Z,101885.69
2023-05-25T15:42:09.462Z,101889.05
2023-05-25T15:44:37.910Z,101885.23
2023-05-25T15:47:06.194Z,101886.84
2023-05-25T15:49:38.046Z,101886.02
2023-05-25T15:52:06.432Z,101886.27
2023-05-25T15:54:34.632Z,101894.62
2023-05-25T15:57:03.629Z,101884.28
2023-05-25T15:59:31.896Z,101887.55
2023-05-25T16:02:00.149Z,101893.73
2023-05-25T16:04:28.504Z,101890.37
2023-05-25T16:06:56.824Z,101893.30
2023-05-25T16:09:25.115Z,101888.30
2023-05-25T16:11:53.370Z,101892.00
2023-05-25T16:14:21.835Z,101901.97
2023-05-25T16:16:50.163Z,101906.94
2023-05-25T16:19:18.528Z,101916.09
2023-05-25T16:21:47.236Z,101911.95
2023-05-25T16:24:15.321Z,101909.82
2023-05-25T16:26:43.566Z,101909.78
2023-05-25T16:29:11.768Z,101909.33
2023-05-25T16:31:39.804Z,101906.84
2023-05-25T16:34:08.286Z,101900.59
2023-05-25T16:36:36.291Z,101902.62
2023-05-25T16:39:04.549Z,101908.77
2023-05-25T16:41:32.601Z,101901.22
2023-05-25T16:44:01.690Z,101899.52
2023-05-25T16:46:30.167Z,101897.06
2023-05-25T16:48:58.285Z,101897.52
2023-05-25T16:51:27.064Z,101904.65
2023-05-25T16:53:55.228Z,101898.05
2023-05-25T16:56:25.764Z,101908.41
2023-05-25T16:58:54.568Z,101906.68
2023-05-25T17:01:25.245Z,101900.01
2023-05-25T17:03:53.582Z,101914.07
2023-05-25T17:06:21.790Z,101904.52
2023-05-25T17:08:51.988Z,101907.43
2023-05-25T17:11:20.544Z,101913.64
2023-05-25T17:13:48.558Z,101914.04
2023-05-25T17:16:16.975Z,101912.83
2023-05-25T17:18:45.282Z,101912.83
2023-05-25T17:21:13.421Z,101914.04
2023-05-25T17:23:41.808Z,101921.06
2023-05-25T17:26:09.893Z,101915.64
2023-05-25T17:28:38.155Z,101918.94
2023-05-25T17:31:06.397Z,101925.15
2023-05-25T17:33:34.490Z,101925.15
2023-05-25T17:36:02.575Z,101929.27
2023-05-25T17:38:30.542Z,101927.60
2023-05-25T17:40:58.548Z,101926.79
2023-05-25T17:43:26.566Z,101929.24
2023-05-25T17:45:54.804Z,101935.81
2023-05-25T17:48:23.061Z,101943.69
2023-05-25T17:50:51.113Z,101938.23
2023-05-25T17:53:19.127Z,101943.62
2023-05-25T17:55:47.413Z,101948.95
2023-05-25T17:58:15.816Z,101935.59
2023-05-25T18:00:43.890Z,101943.43
2023-05-25T18:03:12.190Z,101938.43
2023-05-25T18:05:40.361Z,101938.36
2023-05-25T18:08:08.494Z,101933.72
2023-05-25T18:10:36.729Z,101939.48
2023-05-25T18:13:04.838Z,101938.20
2023-05-25T18:15:32.984Z,101950.20
2023-05-25T18:18:02.136Z,101943.92
2023-05-25T18:20:30.196Z,101938.13
2023-05-25T18:22:58.451Z,101933.55
2023-05-25T18:25:26.710Z,101935.95
2023-05-25T18:27:54.678Z,101936.73
2023-05-25T18:30:22.714Z,101936.70
2023-05-25T18:32:50.864Z,101934.57
2023-05-25T18:35:19.040Z,101933.66
2023-05-25T18:37:47.085Z,101941.86
2023-05-25T18:40:15.481Z,101940.55
2023-05-25T18:42:43.798Z,101946.73
2023-05-25T18:45:11.922Z,101940.45
2023-05-25T18:47:40.470Z,101943.73
2023-05-25T18:50:08.934Z,101942.41
2023-05-25T18:52:37.061Z,101944.90
2023-05-25T18:55:05.551Z,101937.74
2023-05-25T18:57:34.277Z,101936.04
2023-05-25T19:00:02.431Z,101938.10
2023-05-25T19:02:31.802Z,101939.70
2023-05-25T19:05:00.164Z,101940.91
2023-05-25T19:07:28.679Z,101945.81
2023-05-25T19:09:56.782Z,101948.27
2023-05-25T19:12:24.879Z,101943.23
2023-05-25T19:14:52.998Z,101942.84
2023-05-25T19:17:21.021Z,101939.08
2023-05-25T19:19:49.157Z,101937.45
2023-05-25T19:22:17.216Z,101934.08
2023-05-25T19:24:48.522Z,101936.07
2023-05-25T19:27:21.265Z,101947.26
2023-05-25T19:29:49.511Z,101942.32
2023-05-25T19:32:18.041Z,101951.93
2023-05-25T19:34:46.427Z,101954.41
2023-05-25T19:37:14.427Z,101952.39
2023-05-25T19:39:42.602Z,101947.35
2023-05-25T19:42:10.629Z,101957.26
2023-05-25T19:44:39.254Z,101955.59
2023-05-25T19:47:07.734Z,101965.89
2023-05-25T19:49:35.795Z,101966.64
2023-05-25T19:52:03.859Z,101972.37
2023-05-25T19:54:32.416Z,101966.94
2023-05-25T19:57:00.565Z,101971.02
2023-05-25T19:59:30.409Z,101979.63
2023-05-25T20:01:58.608Z,101978.71
2023-05-25T20:04:26.910Z,101977.80
2023-05-25T20:06:55.363Z,101981.39
2023-05-25T20:09:31.244Z,101984.13
2023-05-25T20:11:59.791Z,101984.92
2023-05-25T20:14:27.950Z,101991.07
2023-05-25T20:16:57.221Z,101989.63
2023-05-25T20:19:25.284Z,101991.07
2023-05-25T20:21:53.363Z,101994.11
2023-05-25T20:24:21.452Z,101995.09
2023-05-25T20:26:49.455Z,102000.26
2023-05-25T20:29:17.680Z,101999.70
2023-05-25T20:31:45.783Z,101998.23
2023-05-25T20:34:14.043Z,101993.95
2023-05-25T20:36:42.523Z,101995.05
2023-05-25T20:39:10.822Z,102005.36
2023-05-25T20:41:38.852Z,101999.86
2023-05-25T20:44:10.488Z,102003.85
2023-05-25T20:46:38.908Z,102002.09
2023-05-25T20:49:07.038Z,102008.07
2023-05-25T20:51:35.192Z,101997.15
2023-05-25T20:54:03.331Z,101999.86
2023-05-25T20:56:31.455Z,102000.62
2023-05-25T20:58:59.452Z,101999.57
2023-05-25T21:01:27.715Z,102005.88
2023-05-25T21:03:55.784Z,102004.08
2023-05-25T21:06:24.086Z,102004.73
2023-05-25T21:08:54.355Z,102007.77
2023-05-25T21:11:23.328Z,102005.91
2023-05-25T21:13:51.350Z,101996.66
2023-05-25T21:16:19.487Z,101999.80
2023-05-25T21:18:47.594Z,102011.60
2023-05-25T21:21:17.244Z,102010.33
2023-05-25T21:23:45.387Z,102018.40
2023-05-25T21:26:13.445Z,102004.21
2023-05-25T21:28:41.515Z,102000.29
2023-05-25T21:31:09.614Z,102013.76
2023-05-25T21:33:38.915Z,102018.60
2023-05-25T21:36:07.225Z,102016.80
2023-05-25T21:38:35.241Z,102015.36
2023-05-25T21:41:03.201Z,102010.69
2023-05-25T21:43:31.185Z,102006.86
2023-05-25T21:45:59.245Z,102012.02
2023-05-25T21:48:27.267Z,102002.38
2023-05-25T21:50:55.334Z,102007.71
2023-05-25T21:53:23.404Z,102010.09
2023-05-25T21:55:51.537Z,102012.98
2023-05-25T21:58:19.600Z,102007.94
2023-05-25T22:00:47.632Z,102002.91
2023-05-25T22:03:15.909Z,101998.59
2023-05-25T22:05:44.365Z,102001.83
2023-05-25T22:08:12.711Z,102011.93
2023-05-25T22:10:40.761Z,102013.01
2023-05-25T22:13:08.796Z,102003.39
2023-05-25T22:15:36.994Z,102009.05
2023-05-25T22:18:05.267Z,102010.95
2023-05-25T22:20:33.420Z,102005.68
2023-05-25T22:23:01.517Z,102004.73
2023-05-25T22:25:29.546Z,102012.91
2023-05-25T22:27:57.912Z,102008.69
2023-05-25T22:30:26.019Z,102005.32
2023-05-25T22:32:54.108Z,102002.80
2023-05-25T22:35:22.348Z,102005.81
2023-05-25T22:37:50.350Z,102012.29
2023-05-25T22:40:18.489Z,102008.79
2023-05-25T22:42:51.368Z,102007.45
2023-05-25T22:45:19.623Z,102003.63
2023-05-25T22:47:47.650Z,101997.73
2023-05-25T22:50:15.890Z,101996.43
2023-05-25T22:52:43.859Z,102008.66
2023-05-25T22:55:12.424Z,102000.71
2023-05-25T22:57:40.758Z,101999.41
2023-05-25T23:00:09.795Z,102011.63
2023-05-25T23:02:37.908Z,102002.38
2023-05-25T23:05:06.375Z,102007.68
2023-05-25T23:07:34.384Z,102007.48
2023-05-25T23:10:02.358Z,102007.48
2023-05-25T23:12:30.600Z,102007.35
2023-05-25T23:15:00.776Z,102014.22
2023-05-25T23:17:29.038Z,102010.00
2023-05-25T23:19:57.171Z,102013.59
2023-05-25T23:22:25.286Z,102004.44
2023-05-25T23:24:53.347Z,102008.76
2023-05-25T23:27:21.390Z,102004.21
2023-05-25T23:29:49.486Z,101999.50
2023-05-25T23:32:17.556Z,102000.35
2023-05-25T23:34:45.597Z,102004.41
2023-05-25T23:37:13.629Z,101993.13
2023-05-25T23:39:41.795Z,101989.76
2023-05-25T23:42:09.911Z,101991.82
2023-05-25T23:44:38.059Z,101985.54
2023-05-25T23:47:07.143Z,101995.02
2023-05-25T23:49:35.297Z,101987.60
2023-05-25T23:52:03.395Z,101995.74
2023-05-25T23:54:31.456Z,101995.97
2023-05-25T23:56:59.448Z,101994.77
2023-05-25T23:59:27.564Z,101982.63
